sensor_id;sensor_type;location;lat;lon;timestamp;temperature;humidity
33007;DHT22;19361;51.598;7.650;2022-07-05T00:04:50;21.60;41.90
33007;DHT22;19361;51.598;7.650;2022-07-05T00:09:55;21.60;42.10
33007;DHT22;19361;51.598;7.650;2022-07-05T00:14:56;21.50;42.60
33007;DHT22;19361;51.598;7.650;2022-07-05T00:19:57;21.50;42.40
33007;DHT22;19361;51.598;7.650;2022-07-05T00:24:58;21.50;42.60
33007;DHT22;19361;51.598;7.650;2022-07-05T00:29:58;21.50;42.70
33007;DHT22;19361;51.598;7.650;2022-07-05T00:34:59;21.40;42.70
33007;DHT22;19361;51.598;7.650;2022-07-05T00:40:00;21.30;42.70
33007;DHT22;19361;51.598;7.650;2022-07-05T00:45:04;21.30;43.00
33007;DHT22;19361;51.598;7.650;2022-07-05T00:50:06;21.20;43.00
33007;DHT22;19361;51.598;7.650;2022-07-05T00:55:07;21.20;43.00
33007;DHT22;19361;51.598;7.650;2022-07-05T01:00:09;21.10;43.20
33007;DHT22;19361;51.598;7.650;2022-07-05T01:05:10;21.00;43.30
33007;DHT22;19361;51.598;7.650;2022-07-05T01:10:10;20.90;43.40
33007;DHT22;19361;51.598;7.650;2022-07-05T01:15:11;20.90;43.50
33007;DHT22;19361;51.598;7.650;2022-07-05T01:20:12;20.80;43.60
33007;DHT22;19361;51.598;7.650;2022-07-05T01:25:13;20.70;43.80
33007;DHT22;19361;51.598;7.650;2022-07-05T01:30:14;20.70;43.90
33007;DHT22;19361;51.598;7.650;2022-07-05T01:35:16;20.70;44.10
33007;DHT22;19361;51.598;7.650;2022-07-05T01:40:21;20.70;44.30
33007;DHT22;19361;51.598;7.650;2022-07-05T01:45:21;20.60;44.20
33007;DHT22;19361;51.598;7.650;2022-07-05T01:51:06;20.60;44.40
33007;DHT22;19361;51.598;7.650;2022-07-05T02:02:02;20.60;45.50
33007;DHT22;19361;51.598;7.650;2022-07-05T02:07:05;20.50;44.50
33007;DHT22;19361;51.598;7.650;2022-07-05T02:12:08;20.50;44.40
33007;DHT22;19361;51.598;7.650;2022-07-05T02:17:09;20.50;44.40
33007;DHT22;19361;51.598;7.650;2022-07-05T02:22:10;20.40;44.40
33007;DHT22;19361;51.598;7.650;2022-07-05T02:27:12;20.50;44.50
33007;DHT22;19361;51.598;7.650;2022-07-05T02:32:13;20.40;44.80
33007;DHT22;19361;51.598;7.650;2022-07-05T02:37:13;20.40;44.80
33007;DHT22;19361;51.598;7.650;2022-07-05T02:42:14;20.30;45.10
33007;DHT22;19361;51.598;7.650;2022-07-05T02:47:15;20.30;45.10
33007;DHT22;19361;51.598;7.650;2022-07-05T02:52:16;20.20;45.40
33007;DHT22;19361;51.598;7.650;2022-07-05T02:57:16;20.20;45.40
33007;DHT22;19361;51.598;7.650;2022-07-05T03:02:17;20.20;46.30
33007;DHT22;19361;51.598;7.650;2022-07-05T03:07:18;20.10;45.60
33007;DHT22;19361;51.598;7.650;2022-07-05T03:12:18;20.10;45.80
33007;DHT22;19361;51.598;7.650;2022-07-05T03:17:19;20.00;45.90
33007;DHT22;19361;51.598;7.650;2022-07-05T03:22:20;19.90;46.10
33007;DHT22;19361;51.598;7.650;2022-07-05T03:27:21;19.80;46.30
33007;DHT22;19361;51.598;7.650;2022-07-05T03:32:21;19.80;46.60
33007;DHT22;19361;51.598;7.650;2022-07-05T03:37:22;19.80;46.70
33007;DHT22;19361;51.598;7.650;2022-07-05T03:42:23;19.80;46.80
33007;DHT22;19361;51.598;7.650;2022-07-05T03:47:23;19.80;46.90
33007;DHT22;19361;51.598;7.650;2022-07-05T03:52:24;19.80;47.20
33007;DHT22;19361;51.598;7.650;2022-07-05T03:57:25;19.80;47.10
33007;DHT22;19361;51.598;7.650;2022-07-05T04:02:26;19.80;47.10
33007;DHT22;19361;51.598;7.650;2022-07-05T04:07:26;19.80;47.30
33007;DHT22;19361;51.598;7.650;2022-07-05T04:12:27;19.80;47.20
33007;DHT22;19361;51.598;7.650;2022-07-05T04:17:28;19.80;47.30
33007;DHT22;19361;51.598;7.650;2022-07-05T04:22:30;19.90;47.60
33007;DHT22;19361;51.598;7.650;2022-07-05T04:27:31;19.90;47.60
33007;DHT22;19361;51.598;7.650;2022-07-05T04:32:31;20.00;47.80
33007;DHT22;19361;51.598;7.650;2022-07-05T04:37:32;20.20;48.20
33007;DHT22;19361;51.598;7.650;2022-07-05T04:42:33;20.30;47.90
33007;DHT22;19361;51.598;7.650;2022-07-05T04:47:34;20.40;47.70
33007;DHT22;19361;51.598;7.650;2022-07-05T04:52:35;20.50;47.70
33007;DHT22;19361;51.598;7.650;2022-07-05T04:57:37;20.50;47.80
33007;DHT22;19361;51.598;7.650;2022-07-05T05:02:38;20.80;48.60
33007;DHT22;19361;51.598;7.650;2022-07-05T05:07:43;21.20;49.30
33007;DHT22;19361;51.598;7.650;2022-07-05T05:12:44;21.90;48.80
33007;DHT22;19361;51.598;7.650;2022-07-05T05:17:45;22.10;47.30
33007;DHT22;19361;51.598;7.650;2022-07-05T05:22:46;22.20;46.70
33007;DHT22;19361;51.598;7.650;2022-07-05T05:27:48;22.10;46.60
33007;DHT22;19361;51.598;7.650;2022-07-05T05:32:49;22.00;46.70
33007;DHT22;19361;51.598;7.650;2022-07-05T05:37:52;22.00;46.60
33007;DHT22;19361;51.598;7.650;2022-07-05T05:42:54;21.90;46.60
33007;DHT22;19361;51.598;7.650;2022-07-05T05:47:57;21.90;47.10
33007;DHT22;19361;51.598;7.650;2022-07-05T05:52:59;22.30;47.60
33007;DHT22;19361;51.598;7.650;2022-07-05T06:03:25;23.40;47.20
33007;DHT22;19361;51.598;7.650;2022-07-05T06:08:29;24.00;46.30
33007;DHT22;19361;51.598;7.650;2022-07-05T06:13:30;24.40;45.30
33007;DHT22;19361;51.598;7.650;2022-07-05T06:18:31;24.60;44.70
33007;DHT22;19361;51.598;7.650;2022-07-05T06:23:32;24.70;43.60
33007;DHT22;19361;51.598;7.650;2022-07-05T06:28:32;24.60;43.20
33007;DHT22;19361;51.598;7.650;2022-07-05T06:33:33;24.40;42.50
33007;DHT22;19361;51.598;7.650;2022-07-05T06:38:46;24.30;42.90
33007;DHT22;19361;51.598;7.650;2022-07-05T06:43:47;24.20;43.00
33007;DHT22;19361;51.598;7.650;2022-07-05T06:48:48;24.20;42.90
33007;DHT22;19361;51.598;7.650;2022-07-05T06:53:48;24.10;42.80
33007;DHT22;19361;51.598;7.650;2022-07-05T06:58:49;24.10;42.90
33007;DHT22;19361;51.598;7.650;2022-07-05T07:03:50;24.20;42.90
33007;DHT22;19361;51.598;7.650;2022-07-05T07:08:50;24.30;42.60
33007;DHT22;19361;51.598;7.650;2022-07-05T07:14:09;24.40;42.40
33007;DHT22;19361;51.598;7.650;2022-07-05T07:19:10;24.50;42.10
33007;DHT22;19361;51.598;7.650;2022-07-05T07:24:11;24.60;42.40
33007;DHT22;19361;51.598;7.650;2022-07-05T07:29:12;24.70;41.70
33007;DHT22;19361;51.598;7.650;2022-07-05T07:34:13;24.90;41.70
33007;DHT22;19361;51.598;7.650;2022-07-05T07:39:13;25.00;41.40
33007;DHT22;19361;51.598;7.650;2022-07-05T07:44:15;25.10;41.10
33007;DHT22;19361;51.598;7.650;2022-07-05T07:49:16;25.20;40.60
33007;DHT22;19361;51.598;7.650;2022-07-05T07:54:17;25.40;41.00
33007;DHT22;19361;51.598;7.650;2022-07-05T07:59:18;25.60;40.40
33007;DHT22;19361;51.598;7.650;2022-07-05T08:04:18;25.80;40.20
33007;DHT22;19361;51.598;7.650;2022-07-05T08:09:19;25.90;39.70
33007;DHT22;19361;51.598;7.650;2022-07-05T08:14:20;25.80;39.20
33007;DHT22;19361;51.598;7.650;2022-07-05T08:19:21;25.70;39.30
33007;DHT22;19361;51.598;7.650;2022-07-05T08:24:40;25.80;39.50
33007;DHT22;19361;51.598;7.650;2022-07-05T08:29:42;26.00;39.70
33007;DHT22;19361;51.598;7.650;2022-07-05T08:34:43;26.30;39.40
33007;DHT22;19361;51.598;7.650;2022-07-05T08:39:44;26.40;38.90
33007;DHT22;19361;51.598;7.650;2022-07-05T08:44:45;26.30;38.40
33007;DHT22;19361;51.598;7.650;2022-07-05T08:49:49;26.20;38.40
33007;DHT22;19361;51.598;7.650;2022-07-05T08:54:52;26.30;38.50
33007;DHT22;19361;51.598;7.650;2022-07-05T08:59:53;26.30;38.20
33007;DHT22;19361;51.598;7.650;2022-07-05T09:04:55;26.40;37.80
33007;DHT22;19361;51.598;7.650;2022-07-05T09:10:00;26.50;37.50
33007;DHT22;19361;51.598;7.650;2022-07-05T09:15:02;26.60;37.40
33007;DHT22;19361;51.598;7.650;2022-07-05T09:20:06;26.60;37.60
33007;DHT22;19361;51.598;7.650;2022-07-05T09:25:25;26.80;37.70
33007;DHT22;19361;51.598;7.650;2022-07-05T09:30:32;26.90;37.20
33007;DHT22;19361;51.598;7.650;2022-07-05T09:35:36;26.90;36.90
33007;DHT22;19361;51.598;7.650;2022-07-05T09:40:50;26.80;37.10
33007;DHT22;19361;51.598;7.650;2022-07-05T09:51:05;26.40;37.70
33007;DHT22;19361;51.598;7.650;2022-07-05T09:56:06;26.40;37.50
33007;DHT22;19361;51.598;7.650;2022-07-05T10:01:28;26.40;37.30
33007;DHT22;19361;51.598;7.650;2022-07-05T10:06:32;26.40;37.20
33007;DHT22;19361;51.598;7.650;2022-07-05T10:11:34;26.60;37.50
33007;DHT22;19361;51.598;7.650;2022-07-05T10:16:38;26.80;37.20
33007;DHT22;19361;51.598;7.650;2022-07-05T10:21:39;26.90;37.30
33007;DHT22;19361;51.598;7.650;2022-07-05T10:26:41;26.90;36.40
33007;DHT22;19361;51.598;7.650;2022-07-05T10:31:42;27.00;36.30
33007;DHT22;19361;51.598;7.650;2022-07-05T10:36:44;27.10;36.00
33007;DHT22;19361;51.598;7.650;2022-07-05T10:41:45;27.30;36.00
33007;DHT22;19361;51.598;7.650;2022-07-05T10:46:46;27.30;36.10
33007;DHT22;19361;51.598;7.650;2022-07-05T10:51:47;27.60;35.60
33007;DHT22;19361;51.598;7.650;2022-07-05T10:57:22;27.70;34.70
33007;DHT22;19361;51.598;7.650;2022-07-05T11:02:23;27.70;34.30
33007;DHT22;19361;51.598;7.650;2022-07-05T11:13:35;27.40;34.00
33007;DHT22;19361;51.598;7.650;2022-07-05T11:18:36;27.40;33.90
33007;DHT22;19361;51.598;7.650;2022-07-05T11:23:37;27.40;34.20
33007;DHT22;19361;51.598;7.650;2022-07-05T11:28:45;27.60;34.40
33007;DHT22;19361;51.598;7.650;2022-07-05T11:33:47;27.70;33.50
33007;DHT22;19361;51.598;7.650;2022-07-05T11:39:13;28.00;33.50
33007;DHT22;19361;51.598;7.650;2022-07-05T11:44:22;28.30;33.30
33007;DHT22;19361;51.598;7.650;2022-07-05T11:49:24;28.50;33.00
33007;DHT22;19361;51.598;7.650;2022-07-05T11:54:26;28.70;32.00
33007;DHT22;19361;51.598;7.650;2022-07-05T11:59:28;28.90;32.00
33007;DHT22;19361;51.598;7.650;2022-07-05T12:04:30;29.00;31.70
33007;DHT22;19361;51.598;7.650;2022-07-05T12:09:32;29.10;31.40
33007;DHT22;19361;51.598;7.650;2022-07-05T12:14:52;29.20;31.50
33007;DHT22;19361;51.598;7.650;2022-07-05T12:19:53;29.40;31.00
33007;DHT22;19361;51.598;7.650;2022-07-05T12:24:55;29.50;31.10
33007;DHT22;19361;51.598;7.650;2022-07-05T12:29:56;29.70;31.20
33007;DHT22;19361;51.598;7.650;2022-07-05T12:34:58;29.80;30.80
33007;DHT22;19361;51.598;7.650;2022-07-05T12:40:07;29.80;31.20
33007;DHT22;19361;51.598;7.650;2022-07-05T12:45:16;29.80;31.00
33007;DHT22;19361;51.598;7.650;2022-07-05T12:50:17;29.80;30.60
33007;DHT22;19361;51.598;7.650;2022-07-05T12:55:18;29.80;30.80
33007;DHT22;19361;51.598;7.650;2022-07-05T13:00:37;29.80;30.60
33007;DHT22;19361;51.598;7.650;2022-07-05T13:05:38;29.80;30.80
33007;DHT22;19361;51.598;7.650;2022-07-05T13:10:46;29.90;30.60
33007;DHT22;19361;51.598;7.650;2022-07-05T13:15:46;30.00;30.20
33007;DHT22;19361;51.598;7.650;2022-07-05T13:20:47;30.00;30.30
33007;DHT22;19361;51.598;7.650;2022-07-05T13:25:50;29.90;30.20
33007;DHT22;19361;51.598;7.650;2022-07-05T13:30:51;29.70;30.40
33007;DHT22;19361;51.598;7.650;2022-07-05T13:35:51;29.60;30.40
33007;DHT22;19361;51.598;7.650;2022-07-05T13:40:52;29.40;30.20
33007;DHT22;19361;51.598;7.650;2022-07-05T13:45:53;29.40;30.00
33007;DHT22;19361;51.598;7.650;2022-07-05T13:50:53;29.50;30.30
33007;DHT22;19361;51.598;7.650;2022-07-05T13:55:54;29.50;30.00
33007;DHT22;19361;51.598;7.650;2022-07-05T14:00:55;29.50;30.10
33007;DHT22;19361;51.598;7.650;2022-07-05T14:05:56;29.40;29.80
33007;DHT22;19361;51.598;7.650;2022-07-05T14:10:57;29.30;30.00
33007;DHT22;19361;51.598;7.650;2022-07-05T14:15:58;29.20;30.40
33007;DHT22;19361;51.598;7.650;2022-07-05T14:20:59;29.20;30.20
33007;DHT22;19361;51.598;7.650;2022-07-05T14:26:00;29.20;30.20
33007;DHT22;19361;51.598;7.650;2022-07-05T14:31:02;29.30;30.20
33007;DHT22;19361;51.598;7.650;2022-07-05T14:36:03;29.30;30.40
33007;DHT22;19361;51.598;7.650;2022-07-05T14:41:05;29.40;30.40
33007;DHT22;19361;51.598;7.650;2022-07-05T14:46:05;29.60;30.10
33007;DHT22;19361;51.598;7.650;2022-07-05T14:51:08;29.60;30.10
33007;DHT22;19361;51.598;7.650;2022-07-05T14:56:09;29.60;30.00
33007;DHT22;19361;51.598;7.650;2022-07-05T15:01:10;29.60;30.00
33007;DHT22;19361;51.598;7.650;2022-07-05T15:06:11;29.50;30.20
33007;DHT22;19361;51.598;7.650;2022-07-05T15:11:12;29.40;30.10
33007;DHT22;19361;51.598;7.650;2022-07-05T15:16:12;29.30;30.10
33007;DHT22;19361;51.598;7.650;2022-07-05T15:21:13;29.30;30.40
33007;DHT22;19361;51.598;7.650;2022-07-05T15:26:14;29.20;30.50
33007;DHT22;19361;51.598;7.650;2022-07-05T15:31:15;29.20;30.60
33007;DHT22;19361;51.598;7.650;2022-07-05T15:36:16;29.10;30.70
33007;DHT22;19361;51.598;7.650;2022-07-05T15:41:17;29.00;30.70
33007;DHT22;19361;51.598;7.650;2022-07-05T15:46:17;28.90;30.60
33007;DHT22;19361;51.598;7.650;2022-07-05T15:51:18;28.80;30.80
33007;DHT22;19361;51.598;7.650;2022-07-05T15:56:19;28.70;30.90
33007;DHT22;19361;51.598;7.650;2022-07-05T16:01:19;28.60;30.90
33007;DHT22;19361;51.598;7.650;2022-07-05T16:06:20;28.40;30.90
33007;DHT22;19361;51.598;7.650;2022-07-05T16:11:21;28.20;31.10
33007;DHT22;19361;51.598;7.650;2022-07-05T16:16:22;27.90;31.30
33007;DHT22;19361;51.598;7.650;2022-07-05T16:21:23;27.80;31.70
33007;DHT22;19361;51.598;7.650;2022-07-05T16:26:23;27.70;32.10
33007;DHT22;19361;51.598;7.650;2022-07-05T16:31:24;27.60;32.40
33007;DHT22;19361;51.598;7.650;2022-07-05T16:36:25;27.60;33.20
33007;DHT22;19361;51.598;7.650;2022-07-05T16:41:26;27.60;33.30
33007;DHT22;19361;51.598;7.650;2022-07-05T16:46:26;27.50;32.50
33007;DHT22;19361;51.598;7.650;2022-07-05T16:51:27;27.40;32.60
33007;DHT22;19361;51.598;7.650;2022-07-05T16:56:28;27.30;32.70
33007;DHT22;19361;51.598;7.650;2022-07-05T17:01:29;27.20;32.90
33007;DHT22;19361;51.598;7.650;2022-07-05T17:06:30;27.10;32.90
33007;DHT22;19361;51.598;7.650;2022-07-05T17:11:30;26.90;33.00
33007;DHT22;19361;51.598;7.650;2022-07-05T17:16:32;26.80;33.00
33007;DHT22;19361;51.598;7.650;2022-07-05T17:21:32;26.70;33.20
33007;DHT22;19361;51.598;7.650;2022-07-05T17:26:35;26.60;33.40
33007;DHT22;19361;51.598;7.650;2022-07-05T17:31:36;26.60;33.70
33007;DHT22;19361;51.598;7.650;2022-07-05T17:36:37;26.70;33.90
33007;DHT22;19361;51.598;7.650;2022-07-05T17:41:37;26.90;33.70
33007;DHT22;19361;51.598;7.650;2022-07-05T17:46:38;27.00;33.70
33007;DHT22;19361;51.598;7.650;2022-07-05T17:51:39;26.90;34.10
33007;DHT22;19361;51.598;7.650;2022-07-05T17:56:40;26.70;34.20
33007;DHT22;19361;51.598;7.650;2022-07-05T18:01:42;26.50;34.30
33007;DHT22;19361;51.598;7.650;2022-07-05T18:06:42;26.40;34.60
33007;DHT22;19361;51.598;7.650;2022-07-05T18:11:43;26.30;34.60
33007;DHT22;19361;51.598;7.650;2022-07-05T18:16:44;26.20;34.50
33007;DHT22;19361;51.598;7.650;2022-07-05T18:21:44;26.10;34.60
33007;DHT22;19361;51.598;7.650;2022-07-05T18:26:46;25.90;34.70
33007;DHT22;19361;51.598;7.650;2022-07-05T18:31:47;25.70;34.70
33007;DHT22;19361;51.598;7.650;2022-07-05T18:36:48;25.50;34.80
33007;DHT22;19361;51.598;7.650;2022-07-05T18:41:48;25.40;34.90
33007;DHT22;19361;51.598;7.650;2022-07-05T18:46:49;25.20;35.00
33007;DHT22;19361;51.598;7.650;2022-07-05T18:51:50;25.20;35.30
33007;DHT22;19361;51.598;7.650;2022-07-05T18:56:51;25.10;35.40
33007;DHT22;19361;51.598;7.650;2022-07-05T19:01:52;25.00;35.30
33007;DHT22;19361;51.598;7.650;2022-07-05T19:06:53;24.90;35.50
33007;DHT22;19361;51.598;7.650;2022-07-05T19:12:12;24.80;35.50
33007;DHT22;19361;51.598;7.650;2022-07-05T19:17:31;24.70;35.40
33007;DHT22;19361;51.598;7.650;2022-07-05T19:22:32;24.60;35.50
33007;DHT22;19361;51.598;7.650;2022-07-05T19:27:33;24.40;35.60
33007;DHT22;19361;51.598;7.650;2022-07-05T19:32:33;24.20;35.70
33007;DHT22;19361;51.598;7.650;2022-07-05T19:37:34;24.10;36.00
33007;DHT22;19361;51.598;7.650;2022-07-05T19:42:35;24.00;36.30
33007;DHT22;19361;51.598;7.650;2022-07-05T19:47:36;23.80;36.20
33007;DHT22;19361;51.598;7.650;2022-07-05T19:52:37;23.70;36.40
33007;DHT22;19361;51.598;7.650;2022-07-05T19:57:39;23.60;36.60
33007;DHT22;19361;51.598;7.650;2022-07-05T20:02:40;23.50;36.80
33007;DHT22;19361;51.598;7.650;2022-07-05T20:07:41;23.40;37.00
33007;DHT22;19361;51.598;7.650;2022-07-05T20:12:42;23.30;37.10
33007;DHT22;19361;51.598;7.650;2022-07-05T20:17:42;23.20;37.20
33007;DHT22;19361;51.598;7.650;2022-07-05T20:22:44;23.10;37.30
33007;DHT22;19361;51.598;7.650;2022-07-05T20:27:45;23.00;37.50
33007;DHT22;19361;51.598;7.650;2022-07-05T20:32:46;22.90;37.70
33007;DHT22;19361;51.598;7.650;2022-07-05T20:37:47;22.90;37.90
33007;DHT22;19361;51.598;7.650;2022-07-05T20:42:47;22.90;38.10
33007;DHT22;19361;51.598;7.650;2022-07-05T20:47:48;22.80;38.10
33007;DHT22;19361;51.598;7.650;2022-07-05T20:52:49;22.70;38.30
33007;DHT22;19361;51.598;7.650;2022-07-05T20:57:50;22.70;38.60
33007;DHT22;19361;51.598;7.650;2022-07-05T21:02:50;22.60;38.60
33007;DHT22;19361;51.598;7.650;2022-07-05T21:07:51;22.60;38.80
33007;DHT22;19361;51.598;7.650;2022-07-05T21:12:52;22.60;38.60
33007;DHT22;19361;51.598;7.650;2022-07-05T21:17:52;22.50;38.60
33007;DHT22;19361;51.598;7.650;2022-07-05T21:22:53;22.40;38.60
33007;DHT22;19361;51.598;7.650;2022-07-05T21:27:55;22.30;38.70
33007;DHT22;19361;51.598;7.650;2022-07-05T21:32:55;22.30;39.10
33007;DHT22;19361;51.598;7.650;2022-07-05T21:37:56;22.20;39.20
33007;DHT22;19361;51.598;7.650;2022-07-05T21:42:57;22.10;39.50
33007;DHT22;19361;51.598;7.650;2022-07-05T21:47:58;22.00;39.80
33007;DHT22;19361;51.598;7.650;2022-07-05T21:52:59;21.90;40.20
33007;DHT22;19361;51.598;7.650;2022-07-05T21:58:00;21.90;40.30
33007;DHT22;19361;51.598;7.650;2022-07-05T22:03:00;21.80;40.50
33007;DHT22;19361;51.598;7.650;2022-07-05T22:08:20;21.80;40.80
33007;DHT22;19361;51.598;7.650;2022-07-05T22:13:20;21.70;41.10
33007;DHT22;19361;51.598;7.650;2022-07-05T22:18:21;21.70;41.10
33007;DHT22;19361;51.598;7.650;2022-07-05T22:23:22;21.70;41.30
33007;DHT22;19361;51.598;7.650;2022-07-05T22:28:22;21.60;41.50
33007;DHT22;19361;51.598;7.650;2022-07-05T22:33:23;21.50;41.50
33007;DHT22;19361;51.598;7.650;2022-07-05T22:38:24;21.40;41.60
33007;DHT22;19361;51.598;7.650;2022-07-05T22:43:25;21.30;41.60
33007;DHT22;19361;51.598;7.650;2022-07-05T22:48:25;21.20;41.80
33007;DHT22;19361;51.598;7.650;2022-07-05T22:53:26;21.20;42.30
33007;DHT22;19361;51.598;7.650;2022-07-05T22:58:27;21.10;42.20
33007;DHT22;19361;51.598;7.650;2022-07-05T23:03:28;21.00;42.30
33007;DHT22;19361;51.598;7.650;2022-07-05T23:08:28;20.90;42.50
33007;DHT22;19361;51.598;7.650;2022-07-05T23:13:29;20.90;42.70
33007;DHT22;19361;51.598;7.650;2022-07-05T23:18:30;20.90;43.00
33007;DHT22;19361;51.598;7.650;2022-07-05T23:23:30;20.80;43.00
33007;DHT22;19361;51.598;7.650;2022-07-05T23:28:31;20.80;43.30
33007;DHT22;19361;51.598;7.650;2022-07-05T23:33:32;20.80;43.40
33007;DHT22;19361;51.598;7.650;2022-07-05T23:38:32;20.80;43.60
33007;DHT22;19361;51.598;7.650;2022-07-05T23:43:33;20.70;43.70
33007;DHT22;19361;51.598;7.650;2022-07-05T23:48:34;20.80;43.80
33007;DHT22;19361;51.598;7.650;2022-07-05T23:53:35;20.70;43.80
33007;DHT22;19361;51.598;7.650;2022-07-05T23:58:36;20.60;43.90
